sensor_id;sensor_type;location;lat;lon;timestamp;P1;durP1;ratioP1;P2;durP2;ratioP2
47433;SDS011;33184;48.774;8.918;2022-07-10T00:04:02;4.28;;;1.83;;
47433;SDS011;33184;48.774;8.918;2022-07-10T00:09:22;2.95;;;1.70;;
47433;SDS011;33184;48.774;8.918;2022-07-10T00:14:43;2.38;;;1.42;;
47433;SDS011;33184;48.774;8.918;2022-07-10T00:20:04;2.13;;;1.73;;
47433;SDS011;33184;48.774;8.918;2022-07-10T00:25:25;2.85;;;2.15;;
47433;SDS011;33184;48.774;8.918;2022-07-10T00:30:46;1.50;;;1.40;;
47433;SDS011;33184;48.774;8.918;2022-07-10T00:36:07;3.33;;;1.83;;
47433;SDS011;33184;48.774;8.918;2022-07-10T00:41:28;5.07;;;1.60;;
47433;SDS011;33184;48.774;8.918;2022-07-10T00:46:48;4.38;;;2.17;;
47433;SDS011;33184;48.774;8.918;2022-07-10T00:52:13;3.50;;;1.60;;
47433;SDS011;33184;48.774;8.918;2022-07-10T00:57:36;2.47;;;2.13;;
47433;SDS011;33184;48.774;8.918;2022-07-10T01:02:58;2.95;;;1.90;;
47433;SDS011;33184;48.774;8.918;2022-07-10T01:08:18;6.18;;;2.10;;
47433;SDS011;33184;48.774;8.918;2022-07-10T01:13:39;2.83;;;2.58;;
47433;SDS011;33184;48.774;8.918;2022-07-10T01:19:00;2.92;;;2.63;;
47433;SDS011;33184;48.774;8.918;2022-07-10T01:24:21;4.78;;;2.60;;
47433;SDS011;33184;48.774;8.918;2022-07-10T01:29:42;3.92;;;3.50;;
47433;SDS011;33184;48.774;8.918;2022-07-10T01:35:04;3.67;;;3.25;;
47433;SDS011;33184;48.774;8.918;2022-07-10T01:40:25;5.18;;;3.85;;
47433;SDS011;33184;48.774;8.918;2022-07-10T01:45:46;3.60;;;3.30;;
47433;SDS011;33184;48.774;8.918;2022-07-10T01:51:07;7.07;;;4.10;;
47433;SDS011;33184;48.774;8.918;2022-07-10T01:56:28;4.25;;;3.85;;
47433;SDS011;33184;48.774;8.918;2022-07-10T02:01:49;6.50;;;4.15;;
47433;SDS011;33184;48.774;8.918;2022-07-10T02:07:13;4.97;;;4.28;;
47433;SDS011;33184;48.774;8.918;2022-07-10T02:12:35;5.55;;;5.05;;
47433;SDS011;33184;48.774;8.918;2022-07-10T02:17:55;7.22;;;6.53;;
47433;SDS011;33184;48.774;8.918;2022-07-10T02:23:16;8.75;;;7.82;;
47433;SDS011;33184;48.774;8.918;2022-07-10T02:28:36;10.60;;;8.63;;
47433;SDS011;33184;48.774;8.918;2022-07-10T02:33:57;9.93;;;8.20;;
47433;SDS011;33184;48.774;8.918;2022-07-10T02:39:17;11.15;;;10.07;;
47433;SDS011;33184;48.774;8.918;2022-07-10T02:44:39;9.73;;;8.82;;
47433;SDS011;33184;48.774;8.918;2022-07-10T02:49:59;8.65;;;7.85;;
47433;SDS011;33184;48.774;8.918;2022-07-10T02:55:21;10.13;;;8.70;;
47433;SDS011;33184;48.774;8.918;2022-07-10T03:00:41;9.38;;;8.35;;
47433;SDS011;33184;48.774;8.918;2022-07-10T03:06:02;9.25;;;8.18;;
47433;SDS011;33184;48.774;8.918;2022-07-10T03:11:22;9.80;;;8.85;;
47433;SDS011;33184;48.774;8.918;2022-07-10T03:16:43;12.73;;;10.82;;
47433;SDS011;33184;48.774;8.918;2022-07-10T03:22:04;10.85;;;9.73;;
47433;SDS011;33184;48.774;8.918;2022-07-10T03:27:24;12.38;;;10.23;;
47433;SDS011;33184;48.774;8.918;2022-07-10T03:32:45;12.02;;;10.82;;
47433;SDS011;33184;48.774;8.918;2022-07-10T03:38:06;11.90;;;10.15;;
47433;SDS011;33184;48.774;8.918;2022-07-10T03:43:26;10.10;;;8.75;;
47433;SDS011;33184;48.774;8.918;2022-07-10T03:48:47;10.75;;;9.00;;
47433;SDS011;33184;48.774;8.918;2022-07-10T03:54:07;9.02;;;8.15;;
47433;SDS011;33184;48.774;8.918;2022-07-10T03:59:28;8.35;;;7.53;;
47433;SDS011;33184;48.774;8.918;2022-07-10T04:04:49;9.05;;;8.13;;
47433;SDS011;33184;48.774;8.918;2022-07-10T04:10:09;9.18;;;7.35;;
47433;SDS011;33184;48.774;8.918;2022-07-10T04:15:30;8.77;;;6.60;;
47433;SDS011;33184;48.774;8.918;2022-07-10T04:20:50;5.22;;;4.72;;
47433;SDS011;33184;48.774;8.918;2022-07-10T04:26:11;4.78;;;4.20;;
47433;SDS011;33184;48.774;8.918;2022-07-10T04:31:31;6.82;;;3.83;;
47433;SDS011;33184;48.774;8.918;2022-07-10T04:36:52;8.23;;;3.67;;
47433;SDS011;33184;48.774;8.918;2022-07-10T04:42:12;4.28;;;3.83;;
47433;SDS011;33184;48.774;8.918;2022-07-10T04:47:33;3.80;;;3.40;;
47433;SDS011;33184;48.774;8.918;2022-07-10T04:52:53;5.07;;;3.65;;
47433;SDS011;33184;48.774;8.918;2022-07-10T04:58:14;3.50;;;3.10;;
47433;SDS011;33184;48.774;8.918;2022-07-10T05:03:35;4.13;;;3.63;;
47433;SDS011;33184;48.774;8.918;2022-07-10T05:08:55;4.55;;;2.88;;
47433;SDS011;33184;48.774;8.918;2022-07-10T05:14:16;5.05;;;2.72;;
47433;SDS011;33184;48.774;8.918;2022-07-10T05:19:37;5.97;;;2.25;;
47433;SDS011;33184;48.774;8.918;2022-07-10T05:24:57;3.70;;;2.00;;
47433;SDS011;33184;48.774;8.918;2022-07-10T05:30:18;3.78;;;2.05;;
47433;SDS011;33184;48.774;8.918;2022-07-10T05:35:38;5.05;;;1.88;;
47433;SDS011;33184;48.774;8.918;2022-07-10T05:40:59;2.10;;;1.60;;
47433;SDS011;33184;48.774;8.918;2022-07-10T05:46:19;3.28;;;1.20;;
47433;SDS011;33184;48.774;8.918;2022-07-10T05:51:40;3.90;;;1.40;;
47433;SDS011;33184;48.774;8.918;2022-07-10T05:57:01;2.28;;;1.25;;
47433;SDS011;33184;48.774;8.918;2022-07-10T06:02:21;2.38;;;1.10;;
47433;SDS011;33184;48.774;8.918;2022-07-10T06:07:42;3.45;;;1.60;;
47433;SDS011;33184;48.774;8.918;2022-07-10T06:13:02;4.13;;;1.50;;
47433;SDS011;33184;48.774;8.918;2022-07-10T06:18:23;4.47;;;1.15;;
47433;SDS011;33184;48.774;8.918;2022-07-10T06:23:43;2.20;;;0.95;;
47433;SDS011;33184;48.774;8.918;2022-07-10T06:29:04;6.25;;;2.05;;
47433;SDS011;33184;48.774;8.918;2022-07-10T06:34:24;3.90;;;1.23;;
47433;SDS011;33184;48.774;8.918;2022-07-10T06:39:45;2.97;;;1.00;;
47433;SDS011;33184;48.774;8.918;2022-07-10T06:45:09;2.08;;;1.17;;
47433;SDS011;33184;48.774;8.918;2022-07-10T06:50:30;2.95;;;0.80;;
47433;SDS011;33184;48.774;8.918;2022-07-10T06:55:51;1.75;;;0.57;;
47433;SDS011;33184;48.774;8.918;2022-07-10T07:01:12;2.25;;;0.70;;
47433;SDS011;33184;48.774;8.918;2022-07-10T07:06:33;2.90;;;0.88;;
47433;SDS011;33184;48.774;8.918;2022-07-10T07:11:53;3.70;;;0.73;;
47433;SDS011;33184;48.774;8.918;2022-07-10T07:17:14;2.22;;;0.70;;
47433;SDS011;33184;48.774;8.918;2022-07-10T07:22:41;2.38;;;0.70;;
47433;SDS011;33184;48.774;8.918;2022-07-10T07:28:20;2.35;;;0.70;;
47433;SDS011;33184;48.774;8.918;2022-07-10T07:33:41;0.93;;;0.80;;
47433;SDS011;33184;48.774;8.918;2022-07-10T07:39:02;3.38;;;0.60;;
47433;SDS011;33184;48.774;8.918;2022-07-10T07:44:22;3.72;;;0.73;;
47433;SDS011;33184;48.774;8.918;2022-07-10T07:49:43;0.70;;;0.55;;
47433;SDS011;33184;48.774;8.918;2022-07-10T07:55:04;2.45;;;0.80;;
47433;SDS011;33184;48.774;8.918;2022-07-10T08:00:26;2.13;;;0.68;;
47433;SDS011;33184;48.774;8.918;2022-07-10T08:05:48;1.75;;;0.98;;
47433;SDS011;33184;48.774;8.918;2022-07-10T08:11:09;3.75;;;1.13;;
47433;SDS011;33184;48.774;8.918;2022-07-10T08:16:30;2.78;;;0.70;;
47433;SDS011;33184;48.774;8.918;2022-07-10T08:21:50;2.53;;;0.70;;
47433;SDS011;33184;48.774;8.918;2022-07-10T08:27:11;2.55;;;0.70;;
47433;SDS011;33184;48.774;8.918;2022-07-10T08:32:32;2.42;;;0.60;;
47433;SDS011;33184;48.774;8.918;2022-07-10T08:37:53;1.58;;;1.00;;
47433;SDS011;33184;48.774;8.918;2022-07-10T08:43:13;4.28;;;0.60;;
47433;SDS011;33184;48.774;8.918;2022-07-10T08:48:35;3.30;;;1.23;;
47433;SDS011;33184;48.774;8.918;2022-07-10T08:53:57;1.45;;;0.90;;
47433;SDS011;33184;48.774;8.918;2022-07-10T08:59:21;3.22;;;1.00;;
47433;SDS011;33184;48.774;8.918;2022-07-10T09:04:42;2.75;;;0.90;;
47433;SDS011;33184;48.774;8.918;2022-07-10T09:10:05;3.60;;;1.08;;
47433;SDS011;33184;48.774;8.918;2022-07-10T09:15:28;5.38;;;0.93;;
47433;SDS011;33184;48.774;8.918;2022-07-10T09:20:52;2.67;;;0.88;;
47433;SDS011;33184;48.774;8.918;2022-07-10T09:26:12;6.05;;;0.90;;
47433;SDS011;33184;48.774;8.918;2022-07-10T09:31:52;3.67;;;1.02;;
47433;SDS011;33184;48.774;8.918;2022-07-10T09:37:29;3.60;;;1.10;;
47433;SDS011;33184;48.774;8.918;2022-07-10T09:42:49;3.63;;;1.10;;
47433;SDS011;33184;48.774;8.918;2022-07-10T09:48:10;3.80;;;0.93;;
47433;SDS011;33184;48.774;8.918;2022-07-10T09:53:31;1.85;;;0.70;;
47433;SDS011;33184;48.774;8.918;2022-07-10T09:58:53;1.65;;;0.80;;
47433;SDS011;33184;48.774;8.918;2022-07-10T10:09:47;3.00;;;0.98;;
47433;SDS011;33184;48.774;8.918;2022-07-10T10:15:18;3.13;;;1.05;;
47433;SDS011;33184;48.774;8.918;2022-07-10T10:20:40;3.17;;;0.90;;
47433;SDS011;33184;48.774;8.918;2022-07-10T10:26:04;3.05;;;0.95;;
47433;SDS011;33184;48.774;8.918;2022-07-10T10:31:24;3.10;;;0.80;;
47433;SDS011;33184;48.774;8.918;2022-07-10T10:36:51;2.75;;;0.90;;
47433;SDS011;33184;48.774;8.918;2022-07-10T10:42:21;1.08;;;0.77;;
47433;SDS011;33184;48.774;8.918;2022-07-10T10:53:23;4.93;;;0.65;;
47433;SDS011;33184;48.774;8.918;2022-07-10T10:58:47;2.17;;;0.60;;
47433;SDS011;33184;48.774;8.918;2022-07-10T11:09:30;1.77;;;0.52;;
47433;SDS011;33184;48.774;8.918;2022-07-10T11:14:51;2.67;;;1.02;;
47433;SDS011;33184;48.774;8.918;2022-07-10T11:20:12;1.55;;;0.40;;
47433;SDS011;33184;48.774;8.918;2022-07-10T11:31:01;4.97;;;0.40;;
47433;SDS011;33184;48.774;8.918;2022-07-10T11:41:49;2.25;;;0.40;;
47433;SDS011;33184;48.774;8.918;2022-07-10T11:47:09;1.33;;;0.40;;
47433;SDS011;33184;48.774;8.918;2022-07-10T11:52:34;1.02;;;0.40;;
47433;SDS011;33184;48.774;8.918;2022-07-10T11:57:56;1.73;;;0.50;;
47433;SDS011;33184;48.774;8.918;2022-07-10T12:03:18;0.75;;;0.22;;
47433;SDS011;33184;48.774;8.918;2022-07-10T12:08:44;1.23;;;0.30;;
47433;SDS011;33184;48.774;8.918;2022-07-10T12:19:46;0.93;;;0.20;;
47433;SDS011;33184;48.774;8.918;2022-07-10T12:25:07;1.45;;;0.20;;
47433;SDS011;33184;48.774;8.918;2022-07-10T12:30:36;2.33;;;0.30;;
47433;SDS011;33184;48.774;8.918;2022-07-10T12:36:01;3.53;;;0.30;;
47433;SDS011;33184;48.774;8.918;2022-07-10T12:41:21;0.55;;;0.15;;
47433;SDS011;33184;48.774;8.918;2022-07-10T12:46:44;0.65;;;0.25;;
47433;SDS011;33184;48.774;8.918;2022-07-10T12:52:33;1.25;;;0.20;;
47433;SDS011;33184;48.774;8.918;2022-07-10T12:57:59;1.52;;;0.35;;
47433;SDS011;33184;48.774;8.918;2022-07-10T13:03:25;1.88;;;0.20;;
47433;SDS011;33184;48.774;8.918;2022-07-10T13:08:48;3.22;;;0.30;;
47433;SDS011;33184;48.774;8.918;2022-07-10T13:14:08;1.30;;;0.20;;
47433;SDS011;33184;48.774;8.918;2022-07-10T13:19:29;1.70;;;0.20;;
47433;SDS011;33184;48.774;8.918;2022-07-10T13:24:49;0.88;;;0.20;;
47433;SDS011;33184;48.774;8.918;2022-07-10T13:30:10;3.45;;;0.40;;
47433;SDS011;33184;48.774;8.918;2022-07-10T13:35:31;1.02;;;0.20;;
47433;SDS011;33184;48.774;8.918;2022-07-10T13:40:53;1.83;;;0.10;;
47433;SDS011;33184;48.774;8.918;2022-07-10T13:46:14;1.50;;;0.10;;
47433;SDS011;33184;48.774;8.918;2022-07-10T13:51:34;2.75;;;0.50;;
47433;SDS011;33184;48.774;8.918;2022-07-10T13:56:55;3.33;;;0.22;;
47433;SDS011;33184;48.774;8.918;2022-07-10T14:02:16;0.52;;;0.20;;
47433;SDS011;33184;48.774;8.918;2022-07-10T14:07:36;2.15;;;0.20;;
47433;SDS011;33184;48.774;8.918;2022-07-10T14:12:57;2.22;;;0.17;;
47433;SDS011;33184;48.774;8.918;2022-07-10T14:18:18;0.75;;;0.10;;
47433;SDS011;33184;48.774;8.918;2022-07-10T14:23:54;5.97;;;0.30;;
47433;SDS011;33184;48.774;8.918;2022-07-10T14:29:16;1.90;;;0.20;;
47433;SDS011;33184;48.774;8.918;2022-07-10T14:34:37;3.95;;;0.30;;
47433;SDS011;33184;48.774;8.918;2022-07-10T14:39:58;0.85;;;0.50;;
47433;SDS011;33184;48.774;8.918;2022-07-10T14:45:18;1.58;;;0.35;;
47433;SDS011;33184;48.774;8.918;2022-07-10T14:50:39;2.35;;;0.40;;
47433;SDS011;33184;48.774;8.918;2022-07-10T14:56:00;2.10;;;0.20;;
47433;SDS011;33184;48.774;8.918;2022-07-10T15:01:24;0.93;;;0.20;;
47433;SDS011;33184;48.774;8.918;2022-07-10T15:06:44;1.25;;;0.20;;
47433;SDS011;33184;48.774;8.918;2022-07-10T15:12:07;1.88;;;0.30;;
47433;SDS011;33184;48.774;8.918;2022-07-10T15:17:28;1.75;;;0.30;;
47433;SDS011;33184;48.774;8.918;2022-07-10T15:22:49;0.80;;;0.10;;
47433;SDS011;33184;48.774;8.918;2022-07-10T15:28:10;0.40;;;0.20;;
47433;SDS011;33184;48.774;8.918;2022-07-10T15:33:34;0.88;;;0.20;;
47433;SDS011;33184;48.774;8.918;2022-07-10T15:38:56;1.17;;;0.20;;
47433;SDS011;33184;48.774;8.918;2022-07-10T15:44:16;2.17;;;0.32;;
47433;SDS011;33184;48.774;8.918;2022-07-10T15:49:37;3.35;;;0.28;;
47433;SDS011;33184;48.774;8.918;2022-07-10T15:54:58;3.30;;;0.30;;
47433;SDS011;33184;48.774;8.918;2022-07-10T16:00:18;0.80;;;0.20;;
47433;SDS011;33184;48.774;8.918;2022-07-10T16:05:39;0.70;;;0.20;;
47433;SDS011;33184;48.774;8.918;2022-07-10T16:10:59;1.85;;;0.20;;
47433;SDS011;33184;48.774;8.918;2022-07-10T16:16:20;1.85;;;0.30;;
47433;SDS011;33184;48.774;8.918;2022-07-10T16:21:40;2.15;;;0.28;;
47433;SDS011;33184;48.774;8.918;2022-07-10T16:27:01;1.85;;;0.47;;
47433;SDS011;33184;48.774;8.918;2022-07-10T16:32:22;2.83;;;0.30;;
47433;SDS011;33184;48.774;8.918;2022-07-10T16:37:42;3.30;;;0.50;;
47433;SDS011;33184;48.774;8.918;2022-07-10T16:43:03;2.25;;;0.60;;
47433;SDS011;33184;48.774;8.918;2022-07-10T16:48:23;2.88;;;0.40;;
47433;SDS011;33184;48.774;8.918;2022-07-10T16:53:44;2.15;;;0.30;;
47433;SDS011;33184;48.774;8.918;2022-07-10T16:59:04;2.15;;;0.32;;
47433;SDS011;33184;48.774;8.918;2022-07-10T17:04:25;3.38;;;0.30;;
47433;SDS011;33184;48.774;8.918;2022-07-10T17:10:01;1.77;;;0.50;;
47433;SDS011;33184;48.774;8.918;2022-07-10T17:15:21;3.90;;;1.00;;
47433;SDS011;33184;48.774;8.918;2022-07-10T17:20:43;1.75;;;0.40;;
47433;SDS011;33184;48.774;8.918;2022-07-10T17:26:04;1.38;;;0.35;;
47433;SDS011;33184;48.774;8.918;2022-07-10T17:31:25;3.22;;;0.73;;
47433;SDS011;33184;48.774;8.918;2022-07-10T17:36:45;2.35;;;0.20;;
47433;SDS011;33184;48.774;8.918;2022-07-10T17:42:06;2.05;;;0.68;;
47433;SDS011;33184;48.774;8.918;2022-07-10T17:47:26;1.25;;;0.30;;
47433;SDS011;33184;48.774;8.918;2022-07-10T17:52:47;1.95;;;0.40;;
47433;SDS011;33184;48.774;8.918;2022-07-10T17:58:07;6.10;;;1.85;;
47433;SDS011;33184;48.774;8.918;2022-07-10T18:03:29;3.45;;;0.95;;
47433;SDS011;33184;48.774;8.918;2022-07-10T18:08:49;5.65;;;2.15;;
47433;SDS011;33184;48.774;8.918;2022-07-10T18:14:11;2.30;;;0.40;;
47433;SDS011;33184;48.774;8.918;2022-07-10T18:19:32;2.88;;;0.40;;
47433;SDS011;33184;48.774;8.918;2022-07-10T18:24:52;0.75;;;0.38;;
47433;SDS011;33184;48.774;8.918;2022-07-10T18:30:13;2.13;;;0.35;;
47433;SDS011;33184;48.774;8.918;2022-07-10T18:35:35;4.90;;;0.38;;
47433;SDS011;33184;48.774;8.918;2022-07-10T18:40:55;2.17;;;0.47;;
47433;SDS011;33184;48.774;8.918;2022-07-10T18:46:20;3.45;;;0.50;;
47433;SDS011;33184;48.774;8.918;2022-07-10T18:51:41;3.75;;;0.40;;
47433;SDS011;33184;48.774;8.918;2022-07-10T18:57:02;2.70;;;0.50;;
47433;SDS011;33184;48.774;8.918;2022-07-10T19:02:23;1.42;;;0.50;;
47433;SDS011;33184;48.774;8.918;2022-07-10T19:07:44;2.22;;;0.40;;
47433;SDS011;33184;48.774;8.918;2022-07-10T19:13:04;0.75;;;0.30;;
47433;SDS011;33184;48.774;8.918;2022-07-10T19:18:25;1.10;;;0.38;;
47433;SDS011;33184;48.774;8.918;2022-07-10T19:23:46;2.50;;;0.30;;
47433;SDS011;33184;48.774;8.918;2022-07-10T19:29:07;0.93;;;0.32;;
47433;SDS011;33184;48.774;8.918;2022-07-10T19:34:28;1.15;;;0.50;;
47433;SDS011;33184;48.774;8.918;2022-07-10T19:39:48;1.85;;;0.40;;
47433;SDS011;33184;48.774;8.918;2022-07-10T19:45:09;2.83;;;0.30;;
47433;SDS011;33184;48.774;8.918;2022-07-10T19:50:30;0.63;;;0.22;;
47433;SDS011;33184;48.774;8.918;2022-07-10T19:55:52;1.52;;;0.40;;
47433;SDS011;33184;48.774;8.918;2022-07-10T20:01:13;1.00;;;0.30;;
47433;SDS011;33184;48.774;8.918;2022-07-10T20:06:33;0.70;;;0.20;;
47433;SDS011;33184;48.774;8.918;2022-07-10T20:11:54;1.95;;;0.25;;
47433;SDS011;33184;48.774;8.918;2022-07-10T20:17:14;4.03;;;0.30;;
47433;SDS011;33184;48.774;8.918;2022-07-10T20:22:35;0.20;;;0.20;;
47433;SDS011;33184;48.774;8.918;2022-07-10T20:27:56;1.95;;;0.20;;
47433;SDS011;33184;48.774;8.918;2022-07-10T20:33:17;1.90;;;0.38;;
47433;SDS011;33184;48.774;8.918;2022-07-10T20:38:38;0.45;;;0.30;;
47433;SDS011;33184;48.774;8.918;2022-07-10T20:43:59;3.10;;;0.20;;
47433;SDS011;33184;48.774;8.918;2022-07-10T20:49:20;2.50;;;0.20;;
47433;SDS011;33184;48.774;8.918;2022-07-10T20:54:40;0.60;;;0.20;;
47433;SDS011;33184;48.774;8.918;2022-07-10T21:00:01;0.50;;;0.20;;
47433;SDS011;33184;48.774;8.918;2022-07-10T21:05:22;2.42;;;0.73;;
47433;SDS011;33184;48.774;8.918;2022-07-10T21:10:44;2.38;;;0.35;;
47433;SDS011;33184;48.774;8.918;2022-07-10T21:16:05;1.02;;;0.20;;
47433;SDS011;33184;48.774;8.918;2022-07-10T21:21:25;1.52;;;0.60;;
47433;SDS011;33184;48.774;8.918;2022-07-10T21:26:46;1.50;;;0.50;;
47433;SDS011;33184;48.774;8.918;2022-07-10T21:32:07;1.33;;;0.20;;
47433;SDS011;33184;48.774;8.918;2022-07-10T21:37:28;1.23;;;0.10;;
47433;SDS011;33184;48.774;8.918;2022-07-10T21:42:48;1.40;;;0.30;;
47433;SDS011;33184;48.774;8.918;2022-07-10T21:48:09;2.40;;;0.40;;
47433;SDS011;33184;48.774;8.918;2022-07-10T21:53:29;3.30;;;0.25;;
47433;SDS011;33184;48.774;8.918;2022-07-10T21:58:51;4.80;;;0.40;;
47433;SDS011;33184;48.774;8.918;2022-07-10T22:04:12;0.50;;;0.38;;
47433;SDS011;33184;48.774;8.918;2022-07-10T22:09:32;1.55;;;0.35;;
47433;SDS011;33184;48.774;8.918;2022-07-10T22:14:53;0.98;;;0.20;;
47433;SDS011;33184;48.774;8.918;2022-07-10T22:20:14;1.33;;;0.28;;
47433;SDS011;33184;48.774;8.918;2022-07-10T22:25:35;0.93;;;0.35;;
47433;SDS011;33184;48.774;8.918;2022-07-10T22:30:56;2.33;;;0.40;;
47433;SDS011;33184;48.774;8.918;2022-07-10T22:36:35;4.75;;;0.32;;
47433;SDS011;33184;48.774;8.918;2022-07-10T22:41:55;1.27;;;0.30;;
47433;SDS011;33184;48.774;8.918;2022-07-10T22:47:16;0.40;;;0.30;;
47433;SDS011;33184;48.774;8.918;2022-07-10T22:52:36;0.50;;;0.30;;
47433;SDS011;33184;48.774;8.918;2022-07-10T22:57:57;1.15;;;0.40;;
47433;SDS011;33184;48.774;8.918;2022-07-10T23:03:18;0.93;;;0.50;;
47433;SDS011;33184;48.774;8.918;2022-07-10T23:08:38;1.10;;;0.50;;
47433;SDS011;33184;48.774;8.918;2022-07-10T23:14:00;0.75;;;0.20;;
47433;SDS011;33184;48.774;8.918;2022-07-10T23:19:20;3.30;;;0.30;;
47433;SDS011;33184;48.774;8.918;2022-07-10T23:24:41;0.93;;;0.30;;
47433;SDS011;33184;48.774;8.918;2022-07-10T23:30:02;7.85;;;1.20;;
47433;SDS011;33184;48.774;8.918;2022-07-10T23:35:23;0.43;;;0.30;;
47433;SDS011;33184;48.774;8.918;2022-07-10T23:40:44;2.95;;;0.40;;
47433;SDS011;33184;48.774;8.918;2022-07-10T23:46:04;2.05;;;0.32;;
47433;SDS011;33184;48.774;8.918;2022-07-10T23:51:25;0.75;;;0.32;;
47433;SDS011;33184;48.774;8.918;2022-07-10T23:56:45;0.63;;;0.40;;
